createdAt,value
2023-02-03T00:03:08.622Z,14.10
2023-02-03T00:08:08.718Z,14.47
2023-02-03T00:13:07.598Z,14.80
2023-02-03T00:18:07.393Z,6.93
2023-02-03T00:23:06.527Z,10.47
2023-02-03T00:28:06.898Z,11.93
2023-02-03T00:33:06.939Z,12.50
2023-02-03T00:38:05.179Z,10.77
2023-02-03T00:43:03.522Z,11.90
2023-02-03T00:48:01.764Z,10.03
2023-02-03T00:53:01.587Z,12.40
2023-02-03T00:57:59.902Z,15.43
2023-02-03T01:02:58.152Z,15.40
2023-02-03T01:07:56.412Z,16.90
2023-02-03T01:12:56.059Z,11.50
2023-02-03T01:17:54.329Z,19.13
2023-02-03T01:22:52.572Z,13.77
2023-02-03T01:27:50.942Z,15.57
2023-02-03T01:32:50.568Z,16.30
2023-02-03T01:37:48.771Z,7.57
2023-02-03T01:42:47.072Z,14.57
2023-02-03T01:47:49.887Z,11.70
2023-02-03T01:52:53.094Z,10.63
2023-02-03T01:57:55.138Z,10.57
2023-02-03T02:02:54.104Z,9.07
2023-02-03T02:07:54.025Z,9.23
2023-02-03T02:12:52.998Z,7.00
2023-02-03T02:18:06.796Z,4.97
2023-02-03T02:23:41.683Z,13.63
2023-02-03T02:28:59.953Z,8.33
2023-02-03T02:34:05.237Z,10.80
2023-02-03T02:39:13.864Z,8.40
2023-02-03T02:44:18.305Z,5.40
2023-02-03T02:49:22.150Z,5.03
2023-02-03T02:54:25.286Z,4.47
2023-02-03T02:59:23.816Z,4.10
2023-02-03T03:04:27.623Z,3.60
2023-02-03T03:09:29.805Z,7.80
2023-02-03T03:14:33.583Z,3.07
2023-02-03T03:19:36.083Z,5.17
2023-02-03T03:24:38.526Z,4.70
2023-02-03T03:29:41.612Z,4.57
2023-02-03T03:34:44.614Z,2.93
2023-02-03T03:39:48.645Z,2.40
2023-02-03T03:44:56.374Z,2.20
2023-02-03T03:49:58.583Z,1.90
2023-02-03T03:54:58.241Z,1.90
2023-02-03T03:59:56.886Z,2.23
2023-02-03T04:04:57.481Z,1.93
2023-02-03T04:09:55.814Z,2.53
2023-02-03T04:14:54.051Z,3.33
2023-02-03T04:19:52.304Z,4.23
2023-02-03T04:24:51.934Z,3.20
2023-02-03T04:29:50.964Z,4.70
2023-02-03T04:34:49.273Z,4.33
2023-02-03T04:39:47.541Z,7.53
2023-02-03T04:44:47.212Z,5.50
2023-02-03T04:49:45.581Z,10.40
2023-02-03T04:54:43.826Z,7.73
2023-02-03T04:59:41.835Z,8.93
2023-02-03T05:04:41.593Z,10.57
2023-02-03T05:09:39.796Z,10.97
2023-02-03T05:14:38.101Z,12.77
2023-02-03T05:19:36.345Z,13.03
2023-02-03T05:24:35.979Z,20.00
2023-02-03T05:29:34.234Z,17.47
2023-02-03T05:34:32.571Z,16.80
2023-02-03T05:39:30.883Z,17.17
2023-02-03T05:44:31.311Z,19.47
2023-02-03T05:49:29.560Z,17.63
2023-02-03T05:54:27.820Z,18.67
2023-02-03T05:59:26.117Z,21.30
2023-02-03T06:04:25.762Z,17.17
2023-02-03T06:09:24.010Z,19.93
2023-02-03T06:14:22.428Z,19.77
2023-02-03T06:19:20.690Z,17.30
2023-02-03T06:24:20.268Z,19.67
2023-02-03T06:29:18.632Z,17.37
2023-02-03T06:34:16.927Z,18.70
2023-02-03T06:39:15.217Z,18.43
2023-02-03T06:44:14.892Z,16.60
2023-02-03T06:49:13.185Z,17.03
2023-02-03T06:54:11.920Z,21.80
2023-02-03T06:59:10.295Z,21.30
2023-02-03T07:04:10.317Z,14.97
2023-02-03T07:09:08.583Z,15.93
2023-02-03T07:14:06.908Z,15.20
2023-02-03T07:19:05.583Z,13.93
2023-02-03T07:24:05.635Z,18.73
2023-02-03T07:29:06.612Z,14.23
2023-02-03T07:34:04.962Z,14.83
2023-02-03T07:39:04.850Z,11.87
2023-02-03T07:44:03.078Z,13.40
2023-02-03T07:49:02.405Z,12.07
2023-02-03T07:54:00.713Z,13.87
2023-02-03T07:59:00.712Z,11.60
2023-02-03T08:03:58.967Z,8.17
2023-02-03T08:08:57.215Z,8.40
2023-02-03T08:13:55.539Z,9.50
2023-02-03T08:18:55.281Z,8.27
2023-02-03T08:23:53.533Z,6.47
2023-02-03T08:28:51.873Z,9.77
2023-02-03T08:33:50.257Z,7.30
2023-02-03T08:38:49.947Z,6.57
2023-02-03T08:43:48.589Z,5.07
2023-02-03T08:48:46.847Z,7.13
2023-02-03T08:53:45.597Z,7.10
2023-02-03T08:58:45.316Z,6.10
2023-02-03T09:03:43.910Z,5.87
2023-02-03T09:08:42.148Z,10.53
2023-02-03T09:13:40.463Z,5.63
2023-02-03T09:18:40.397Z,4.30
2023-02-03T09:23:38.713Z,3.50
2023-02-03T09:28:37.886Z,5.50
2023-02-03T09:33:36.637Z,4.27
2023-02-03T09:38:36.683Z,5.07
2023-02-03T09:43:39.237Z,4.40
2023-02-03T09:48:42.553Z,4.63
2023-02-03T09:53:49.638Z,3.70
2023-02-03T09:58:47.899Z,4.07
2023-02-03T10:03:50.659Z,3.43
2023-02-03T10:09:08.125Z,3.00
2023-02-03T10:14:23.298Z,2.63
2023-02-03T10:19:28.278Z,3.13
2023-02-03T10:24:37.443Z,5.47
2023-02-03T10:29:40.774Z,3.10
2023-02-03T10:34:39.956Z,2.50
2023-02-03T10:39:44.684Z,2.87
2023-02-03T10:44:46.205Z,3.60
2023-02-03T10:49:45.897Z,1.70
2023-02-03T10:54:45.531Z,2.60
2023-02-03T10:59:46.471Z,4.60
2023-02-03T11:04:44.942Z,5.70
2023-02-03T11:09:45.256Z,5.63
2023-02-03T11:14:45.397Z,7.50
2023-02-03T11:19:46.821Z,5.27
2023-02-03T11:24:46.439Z,4.07
2023-02-03T11:29:47.378Z,9.40
2023-02-03T11:34:50.864Z,22.90
2023-02-03T11:39:50.875Z,13.77
2023-02-03T11:44:49.461Z,18.17
2023-02-03T11:50:11.851Z,11.73
2023-02-03T11:55:22.856Z,18.67
2023-02-03T12:00:31.315Z,11.97
2023-02-03T12:05:47.834Z,15.63
2023-02-03T12:10:58.374Z,19.47
2023-02-03T12:16:10.836Z,13.27
2023-02-03T12:21:45.764Z,15.37
2023-02-03T12:26:56.677Z,21.87
2023-02-03T12:32:03.575Z,18.93
2023-02-03T12:37:07.628Z,23.87
2023-02-03T12:42:14.022Z,25.53
2023-02-03T12:47:18.645Z,23.97
2023-02-03T12:52:22.617Z,21.90
2023-02-03T12:57:28.541Z,23.07
2023-02-03T13:02:30.917Z,25.33
2023-02-03T13:07:35.902Z,24.07
2023-02-03T13:12:39.359Z,21.93
2023-02-03T13:17:55.529Z,16.43
2023-02-03T13:22:54.132Z,17.93
2023-02-03T13:28:08.818Z,15.30
2023-02-03T13:33:35.355Z,8.23
2023-02-03T13:38:53.326Z,5.80
2023-02-03T13:43:54.503Z,17.17
2023-02-03T13:48:54.387Z,15.53
2023-02-03T13:54:04.653Z,14.03
2023-02-03T13:59:28.723Z,18.50
2023-02-03T14:04:58.167Z,16.57
2023-02-03T14:10:17.267Z,20.20
2023-02-03T14:15:31.560Z,13.20
2023-02-03T14:21:21.291Z,17.07
2023-02-03T14:26:26.440Z,28.37
2023-02-03T14:31:28.534Z,23.10
2023-02-03T14:36:38.140Z,41.97
2023-02-03T14:41:50.274Z,24.30
2023-02-03T14:47:08.464Z,22.30
2023-02-03T14:52:22.034Z,24.97
2023-02-03T14:57:34.063Z,28.17
2023-02-03T15:02:36.327Z,18.37
2023-02-03T15:07:44.488Z,27.40
2023-02-03T15:12:47.324Z,26.40
2023-02-03T15:17:47.324Z,22.83
2023-02-03T15:22:45.585Z,25.03
2023-02-03T15:27:43.941Z,25.90
2023-02-03T15:32:47.334Z,13.13
2023-02-03T15:37:50.851Z,24.37
2023-02-03T15:42:57.499Z,24.83
2023-02-03T15:47:59.314Z,13.90
2023-02-03T15:53:05.899Z,11.77
2023-02-03T15:58:05.278Z,15.33
2023-02-03T16:03:06.523Z,16.67
2023-02-03T16:08:29.808Z,17.20
2023-02-03T16:13:30.886Z,18.57
2023-02-03T16:18:29.561Z,25.23
2023-02-03T16:23:29.972Z,19.00
2023-02-03T16:28:46.032Z,30.47
2023-02-03T16:34:04.172Z,31.90
2023-02-03T16:39:28.451Z,22.80
2023-02-03T16:44:44.172Z,21.83
2023-02-03T16:50:00.008Z,28.30
2023-02-03T16:55:00.199Z,19.47
2023-02-03T16:59:58.397Z,31.50
2023-02-03T17:04:56.660Z,28.60
2023-02-03T17:09:54.920Z,38.03
2023-02-03T17:14:56.240Z,32.33
2023-02-03T17:19:57.063Z,22.57
2023-02-03T17:24:55.178Z,21.00
2023-02-03T17:29:55.501Z,24.23
2023-02-03T17:34:53.768Z,25.30
2023-02-03T17:55:42.563Z,33.33
2023-02-03T18:00:42.236Z,31.73
2023-02-03T18:05:40.532Z,22.40
2023-02-03T18:10:38.797Z,24.40
2023-02-03T18:15:38.682Z,13.60
2023-02-03T18:20:38.496Z,13.37
2023-02-03T18:25:37.084Z,19.80
2023-02-03T18:30:36.575Z,28.57
2023-02-03T18:35:35.112Z,24.50
2023-02-03T18:40:35.843Z,18.37
2023-02-03T18:45:36.395Z,15.13
2023-02-03T18:50:34.728Z,13.77
2023-02-03T18:55:34.437Z,24.87
2023-02-03T19:00:32.950Z,20.10
2023-02-03T19:05:31.239Z,17.53
2023-02-03T19:10:32.424Z,19.93
2023-02-03T19:15:32.120Z,11.70
2023-02-03T19:20:30.762Z,21.37
2023-02-03T19:25:29.260Z,19.87
2023-02-03T19:30:27.689Z,13.87
2023-02-03T19:35:27.406Z,26.33
2023-02-03T19:40:25.682Z,14.90
2023-02-03T19:45:24.017Z,16.00
2023-02-03T19:50:22.320Z,22.13
2023-02-03T19:55:21.997Z,14.73
2023-02-03T20:00:21.302Z,22.50
2023-02-03T20:05:19.571Z,13.90
2023-02-03T20:10:18.210Z,13.50
2023-02-03T20:15:18.004Z,26.40
2023-02-03T20:20:19.158Z,11.90
2023-02-03T20:25:19.315Z,13.80
2023-02-03T20:30:19.121Z,10.27
2023-02-03T20:35:17.506Z,12.10
2023-02-03T20:40:18.131Z,12.03
2023-02-03T20:45:19.040Z,13.23
2023-02-03T20:50:19.384Z,9.67
2023-02-03T20:55:19.564Z,4.50
2023-02-03T21:00:21.785Z,7.83
2023-02-03T21:05:26.097Z,7.10
2023-02-03T21:10:25.773Z,9.00
2023-02-03T21:15:29.182Z,2.73
2023-02-03T21:20:31.390Z,4.07
2023-02-03T21:25:32.821Z,3.17
2023-02-03T21:30:35.197Z,1.27
2023-02-03T21:35:37.391Z,2.80
2023-02-03T21:40:36.173Z,1.90
2023-02-03T21:45:39.084Z,2.60
2023-02-03T21:50:41.213Z,1.87
2023-02-03T21:55:41.196Z,1.03
2023-02-03T22:00:48.138Z,1.53
2023-02-03T22:05:46.478Z,1.20
2023-02-03T22:10:44.712Z,2.50
2023-02-03T22:15:44.542Z,2.30
2023-02-03T22:20:42.812Z,1.30
2023-02-03T22:25:41.050Z,1.10
2023-02-03T22:30:39.472Z,1.03
2023-02-03T22:35:39.200Z,3.57
2023-02-03T22:40:37.736Z,0.90
2023-02-03T22:45:36.038Z,3.13
2023-02-03T22:50:36.504Z,1.57
2023-02-03T22:55:37.655Z,1.10
2023-02-03T23:00:36.156Z,1.07
2023-02-03T23:05:34.490Z,2.30
2023-02-03T23:10:33.084Z,1.20
2023-02-03T23:15:32.983Z,0.90
2023-02-03T23:20:31.539Z,3.07
2023-02-03T23:25:30.037Z,1.20
2023-02-03T23:30:28.615Z,1.87
2023-02-03T23:35:46.342Z,2.80
2023-02-03T23:40:44.969Z,3.13
2023-02-03T23:45:43.250Z,2.40
2023-02-03T23:50:42.807Z,3.60
2023-02-03T23:55:41.056Z,2.50
